createdAt,value
2023-03-06T00:00:25.728Z,-1.60
2023-03-06T00:02:54.444Z,-1.60
2023-03-06T00:05:22.934Z,-1.70
2023-03-06T00:07:51.575Z,-1.70
2023-03-06T00:10:21.782Z,-1.80
2023-03-06T00:12:52.145Z,-1.70
2023-03-06T00:15:20.612Z,-1.70
2023-03-06T00:17:50.415Z,-1.70
2023-03-06T00:20:19.076Z,-1.70
2023-03-06T00:22:47.993Z,-1.70
2023-03-06T00:25:19.208Z,-1.70
2023-03-06T00:27:48.072Z,-1.70
2023-03-06T00:30:20.701Z,-1.80
2023-03-06T00:32:50.430Z,-1.80
2023-03-06T00:35:18.867Z,-1.70
2023-03-06T00:37:47.457Z,-1.80
2023-03-06T00:40:20.540Z,-1.80
2023-03-06T00:42:49.534Z,-1.80
2023-03-06T00:45:18.006Z,-1.80
2023-03-06T00:47:46.938Z,-1.80
2023-03-06T00:50:18.878Z,-1.90
2023-03-06T00:52:47.421Z,-1.90
2023-03-06T00:55:15.846Z,-1.90
2023-03-06T00:57:44.269Z,-1.90
2023-03-06T01:00:15.010Z,-1.90
2023-03-06T01:02:43.348Z,-2.00
2023-03-06T01:05:14.053Z,-2.00
2023-03-06T01:07:43.898Z,-1.90
2023-03-06T01:10:13.111Z,-2.00
2023-03-06T01:12:42.394Z,-2.00
2023-03-06T01:15:13.831Z,-1.90
2023-03-06T01:17:42.398Z,-2.00
2023-03-06T01:20:14.193Z,-1.90
2023-03-06T01:22:45.077Z,-2.00
2023-03-06T01:25:16.417Z,-1.90
2023-03-06T01:27:47.731Z,-2.00
2023-03-06T01:30:16.393Z,-2.10
2023-03-06T01:32:44.653Z,-2.10
2023-03-06T01:35:13.228Z,-2.00
2023-03-06T01:37:44.147Z,-2.00
2023-03-06T01:40:14.525Z,-2.10
2023-03-06T01:42:43.107Z,-2.10
2023-03-06T01:45:44.748Z,-2.10
2023-03-06T01:48:13.221Z,-2.10
2023-03-06T01:50:41.684Z,-2.10
2023-03-06T01:53:15.556Z,-2.10
2023-03-06T01:55:43.892Z,-2.10
2023-03-06T01:58:17.844Z,-2.10
2023-03-06T02:00:46.362Z,-2.10
2023-03-06T02:03:19.219Z,-2.20
2023-03-06T02:05:47.954Z,-2.20
2023-03-06T02:08:20.643Z,-2.20
2023-03-06T02:11:02.371Z,-2.20
2023-03-06T02:13:30.872Z,-2.20
2023-03-06T02:15:59.518Z,-2.20
2023-03-06T02:18:28.730Z,-2.20
2023-03-06T02:20:59.974Z,-2.20
2023-03-06T02:23:34.975Z,-2.20
2023-03-06T02:26:06.512Z,-2.30
2023-03-06T02:28:35.201Z,-2.30
2023-03-06T02:31:05.896Z,-2.30
2023-03-06T02:33:34.229Z,-2.30
2023-03-06T02:36:04.581Z,-2.30
2023-03-06T02:38:37.996Z,-2.20
2023-03-06T02:41:10.591Z,-2.30
2023-03-06T02:43:42.108Z,-2.30
2023-03-06T02:46:11.351Z,-2.30
2023-03-06T02:48:39.676Z,-2.40
2023-03-06T02:51:08.082Z,-2.30
2023-03-06T02:53:36.408Z,-2.40
2023-03-06T02:56:05.042Z,-2.40
2023-03-06T02:58:34.894Z,-2.30
2023-03-06T03:01:03.205Z,-2.30
2023-03-06T03:03:33.196Z,-2.30
2023-03-06T03:06:01.533Z,-2.30
2023-03-06T03:08:33.531Z,-2.30
2023-03-06T03:11:04.675Z,-2.30
2023-03-06T03:13:41.028Z,-2.30
2023-03-06T03:16:15.708Z,-2.30
2023-03-06T03:18:47.863Z,-2.30
2023-03-06T03:21:18.615Z,-2.30
2023-03-06T03:23:48.640Z,-2.40
2023-03-06T03:26:19.004Z,-2.30
2023-03-06T03:29:11.460Z,-2.40
2023-03-06T03:31:39.800Z,-2.40
2023-03-06T03:34:08.447Z,-2.40
2023-03-06T03:36:40.332Z,-2.40
2023-03-06T03:39:10.589Z,-2.40
2023-03-06T03:41:39.263Z,-2.40
2023-03-06T03:44:11.151Z,-2.40
2023-03-06T03:46:40.106Z,-2.40
2023-03-06T03:49:13.188Z,-2.40
2023-03-06T03:51:41.692Z,-2.40
2023-03-06T03:54:10.291Z,-2.40
2023-03-06T03:56:44.579Z,-2.40
2023-03-06T03:59:21.078Z,-2.40
2023-03-06T04:02:09.824Z,-2.40
2023-03-06T04:04:46.744Z,-2.40
2023-03-06T04:07:15.331Z,-2.50
2023-03-06T04:09:43.933Z,-2.50
2023-03-06T04:12:12.597Z,-2.50
2023-03-06T04:14:42.246Z,-2.40
2023-03-06T04:17:10.811Z,-2.40
2023-03-06T04:19:41.599Z,-2.50
2023-03-06T04:22:09.956Z,-2.50
2023-03-06T04:24:40.194Z,-2.50
2023-03-06T04:27:08.593Z,-2.50
2023-03-06T04:29:41.608Z,-2.50
2023-03-06T04:32:11.473Z,-2.60
2023-03-06T04:34:41.361Z,-2.60
2023-03-06T04:37:19.260Z,-2.60
2023-03-06T04:39:47.800Z,-2.60
2023-03-06T04:42:16.213Z,-2.60
2023-03-06T04:44:45.945Z,-2.60
2023-03-06T04:47:14.478Z,-2.60
2023-03-06T04:49:42.785Z,-2.60
2023-03-06T04:52:11.164Z,-2.60
2023-03-06T04:54:39.484Z,-2.60
2023-03-06T04:57:07.871Z,-2.60
2023-03-06T04:59:38.851Z,-2.60
2023-03-06T05:02:08.990Z,-2.50
2023-03-06T05:04:37.316Z,-2.60
2023-03-06T05:07:05.624Z,-2.60
2023-03-06T05:09:35.243Z,-2.60
2023-03-06T05:12:03.839Z,-2.60
2023-03-06T05:14:32.219Z,-2.60
2023-03-06T05:17:00.617Z,-2.60
2023-03-06T05:19:30.318Z,-2.50
2023-03-06T05:21:58.697Z,-2.50
2023-03-06T05:24:27.086Z,-2.50
2023-03-06T05:26:55.466Z,-2.50
2023-03-06T05:29:23.801Z,-2.60
2023-03-06T05:31:52.146Z,-2.50
2023-03-06T05:34:20.410Z,-2.40
2023-03-06T05:36:50.057Z,-2.60
2023-03-06T05:39:18.744Z,-2.50
2023-03-06T05:41:47.067Z,-2.50
2023-03-06T05:44:15.355Z,-2.50
2023-03-06T05:46:43.647Z,-2.50
2023-03-06T05:49:11.953Z,-2.50
2023-03-06T05:51:40.236Z,-2.40
2023-03-06T05:54:10.202Z,-2.40
2023-03-06T05:56:38.570Z,-2.40
2023-03-06T05:59:07.064Z,-2.40
2023-03-06T06:01:35.342Z,-2.40
2023-03-06T06:04:03.715Z,-2.40
2023-03-06T06:06:32.007Z,-2.30
2023-03-06T06:09:00.327Z,-2.20
2023-03-06T06:11:31.308Z,-2.10
2023-03-06T06:13:59.668Z,-2.10
2023-03-06T06:16:27.975Z,-2.10
2023-03-06T06:18:56.244Z,-2.00
2023-03-06T06:21:24.542Z,-2.00
2023-03-06T06:23:52.888Z,-2.00
2023-03-06T06:26:23.744Z,-1.90
2023-03-06T06:28:53.395Z,-1.80
2023-03-06T06:31:21.719Z,-1.70
2023-03-06T06:33:50.090Z,-1.50
2023-03-06T06:36:20.285Z,-1.60
2023-03-06T06:38:49.378Z,-1.60
2023-03-06T06:44:12.652Z,-1.50
2023-03-06T06:49:29.869Z,-1.30
2023-03-06T06:51:58.601Z,-1.30
2023-03-06T06:54:27.038Z,-1.20
2023-03-06T06:56:55.615Z,-1.00
2023-03-06T06:59:25.312Z,-1.00
2023-03-06T07:01:53.990Z,-1.00
2023-03-06T07:04:23.613Z,-0.90
2023-03-06T07:06:52.049Z,-0.80
2023-03-06T07:09:20.601Z,-0.70
2023-03-06T07:11:48.993Z,-0.60
2023-03-06T07:14:17.461Z,-0.50
2023-03-06T07:16:47.146Z,-0.50
2023-03-06T07:19:15.531Z,-0.40
2023-03-06T07:21:45.935Z,-0.30
2023-03-06T07:24:16.161Z,-0.20
2023-03-06T07:26:47.690Z,0.00
2023-03-06T07:29:16.215Z,0.20
2023-03-06T07:31:47.417Z,0.40
2023-03-06T07:34:17.019Z,0.60
2023-03-06T07:36:52.322Z,0.70
2023-03-06T07:39:20.609Z,0.90
2023-03-06T07:41:52.341Z,1.00
2023-03-06T07:44:25.521Z,1.00
2023-03-06T07:46:57.474Z,1.10
2023-03-06T07:49:25.879Z,1.20
2023-03-06T07:51:54.358Z,1.30
2023-03-06T07:54:22.679Z,1.30
2023-03-06T07:56:51.878Z,1.40
2023-03-06T07:59:20.525Z,1.50
2023-03-06T08:01:48.928Z,1.80
2023-03-06T08:04:18.714Z,2.00
2023-03-06T08:06:49.208Z,2.20
2023-03-06T08:09:17.538Z,2.30
2023-03-06T08:11:46.152Z,2.40
2023-03-06T08:14:14.531Z,2.60
2023-03-06T08:16:42.819Z,2.70
2023-03-06T08:19:11.229Z,2.90
2023-03-06T08:21:40.903Z,3.10
2023-03-06T08:24:09.413Z,3.40
2023-03-06T08:26:37.768Z,3.60
2023-03-06T08:29:08.139Z,3.70
2023-03-06T08:31:40.884Z,3.80
2023-03-06T08:34:11.621Z,3.90
2023-03-06T08:36:41.428Z,4.00
2023-03-06T08:39:09.811Z,3.90
2023-03-06T08:41:39.056Z,3.90
2023-03-06T08:44:07.704Z,4.00
2023-03-06T08:46:36.446Z,4.10
2023-03-06T08:49:04.829Z,4.20
2023-03-06T08:51:33.371Z,4.30
2023-03-06T08:54:03.156Z,4.50
2023-03-06T08:56:33.535Z,4.80
2023-03-06T08:59:04.085Z,5.10
2023-03-06T09:01:35.249Z,5.20
2023-03-06T09:04:06.374Z,5.20
2023-03-06T09:06:37.241Z,5.40
2023-03-06T09:09:08.029Z,5.50
2023-03-06T09:11:36.759Z,5.80
2023-03-06T09:14:05.663Z,6.20
2023-03-06T09:16:34.136Z,6.50
2023-03-06T09:19:05.037Z,7.00
2023-03-06T09:21:33.348Z,7.60
2023-03-06T09:24:01.900Z,8.00
2023-03-06T09:26:45.474Z,8.10
2023-03-06T09:29:16.423Z,8.10
2023-03-06T09:31:45.011Z,7.90
2023-03-06T09:34:13.460Z,7.70
2023-03-06T09:36:55.585Z,7.60
2023-03-06T09:39:27.343Z,7.50
2023-03-06T09:41:58.494Z,7.20
2023-03-06T09:44:30.324Z,7.00
2023-03-06T09:47:14.700Z,6.90
2023-03-06T09:50:09.838Z,6.80
2023-03-06T09:52:46.117Z,6.70
2023-03-06T09:55:18.848Z,6.60
2023-03-06T09:57:54.758Z,6.50
2023-03-06T10:00:29.094Z,6.40
2023-03-06T10:03:14.759Z,6.50
2023-03-06T10:05:50.058Z,6.60
2023-03-06T10:08:27.981Z,6.60
2023-03-06T10:11:02.360Z,6.50
2023-03-06T10:13:39.276Z,6.40
2023-03-06T10:16:27.531Z,6.40
2023-03-06T10:18:56.687Z,6.20
2023-03-06T10:21:38.135Z,6.30
2023-03-06T10:24:16.212Z,6.30
2023-03-06T10:26:50.170Z,6.30
2023-03-06T10:29:53.104Z,6.30
2023-03-06T10:32:46.141Z,6.40
2023-03-06T10:35:21.623Z,6.50
2023-03-06T10:37:50.123Z,6.30
2023-03-06T10:40:21.132Z,6.10
2023-03-06T10:42:56.071Z,6.10
2023-03-06T10:45:47.239Z,5.90
2023-03-06T10:48:22.381Z,5.80
2023-03-06T10:50:50.936Z,5.60
2023-03-06T10:53:24.923Z,5.50
2023-03-06T10:55:56.411Z,5.40
2023-03-06T10:58:27.081Z,5.10
2023-03-06T11:01:06.879Z,4.90
2023-03-06T11:03:35.897Z,4.80
2023-03-06T11:06:10.833Z,4.70
2023-03-06T11:08:41.865Z,4.60
2023-03-06T11:11:13.850Z,4.60
2023-03-06T11:13:44.440Z,4.60
2023-03-06T11:16:25.593Z,4.50
2023-03-06T11:18:59.232Z,4.50
2023-03-06T11:21:31.483Z,4.40
2023-03-06T11:24:05.452Z,4.40
2023-03-06T11:26:45.938Z,4.50
2023-03-06T11:29:38.158Z,4.50
2023-03-06T11:32:13.573Z,4.50
2023-03-06T11:34:50.542Z,4.50
2023-03-06T11:37:26.996Z,4.40
2023-03-06T11:40:04.707Z,4.40
2023-03-06T11:42:39.238Z,4.30
2023-03-06T11:45:25.152Z,4.40
2023-03-06T11:48:02.966Z,4.40
2023-03-06T11:50:36.728Z,4.40
2023-03-06T11:53:08.108Z,4.30
2023-03-06T11:55:45.112Z,4.30
2023-03-06T11:58:52.562Z,4.20
2023-03-06T12:01:28.452Z,3.90
2023-03-06T12:04:19.459Z,3.80
2023-03-06T12:06:57.322Z,3.80
2023-03-06T12:09:32.209Z,3.70
2023-03-06T12:12:19.186Z,3.50
2023-03-06T12:15:00.614Z,3.40
2023-03-06T12:17:39.679Z,3.40
2023-03-06T12:20:36.262Z,3.30
2023-03-06T12:23:16.023Z,3.20
2023-03-06T12:25:45.765Z,3.20
2023-03-06T12:28:35.175Z,3.10
2023-03-06T12:31:33.316Z,3.00
2023-03-06T12:34:15.321Z,2.90
2023-03-06T12:36:54.836Z,2.80
2023-03-06T12:39:40.135Z,2.70
2023-03-06T12:42:32.381Z,2.70
2023-03-06T12:45:23.164Z,2.60
2023-03-06T12:47:56.583Z,2.60
2023-03-06T12:50:27.549Z,2.60
2023-03-06T12:53:00.452Z,2.60
2023-03-06T12:55:32.029Z,2.50
2023-03-06T12:58:51.705Z,2.60
2023-03-06T13:01:42.237Z,2.50
2023-03-06T13:04:28.561Z,2.50
2023-03-06T13:07:12.495Z,2.50
2023-03-06T13:09:59.928Z,2.40
2023-03-06T13:12:49.558Z,2.50
2023-03-06T13:15:37.517Z,2.50
2023-03-06T13:18:44.569Z,2.60
2023-03-06T13:22:01.087Z,2.60
2023-03-06T13:24:31.075Z,2.60
2023-03-06T13:27:03.730Z,2.50
2023-03-06T13:29:55.277Z,2.50
2023-03-06T13:32:32.050Z,2.40
2023-03-06T13:35:00.588Z,2.40
2023-03-06T13:37:53.825Z,2.40
2023-03-06T13:40:32.736Z,2.30
2023-03-06T13:43:22.825Z,2.40
2023-03-06T13:45:51.819Z,2.30
2023-03-06T13:48:44.279Z,2.30
2023-03-06T13:51:25.070Z,2.30
2023-03-06T13:54:20.243Z,2.20
2023-03-06T13:57:08.611Z,2.30
2023-03-06T14:00:15.393Z,2.30
2023-03-06T14:03:23.993Z,2.30
2023-03-06T14:05:53.086Z,2.30
2023-03-06T14:08:23.761Z,2.30
2023-03-06T14:11:04.092Z,2.30
2023-03-06T14:13:45.528Z,2.30
2023-03-06T14:16:21.291Z,2.30
2023-03-06T14:18:50.815Z,2.30
2023-03-06T14:21:30.990Z,2.20
2023-03-06T14:24:01.051Z,2.20
2023-03-06T14:26:33.010Z,2.20
2023-03-06T14:29:03.047Z,2.30
2023-03-06T14:31:38.787Z,2.30
2023-03-06T14:34:08.756Z,2.30
2023-03-06T14:36:43.692Z,2.30
2023-03-06T14:39:14.722Z,2.30
2023-03-06T14:41:43.212Z,2.30
2023-03-06T14:44:19.339Z,2.40
2023-03-06T14:46:51.011Z,2.50
2023-03-06T14:49:21.168Z,2.50
2023-03-06T14:51:51.462Z,2.60
2023-03-06T14:54:21.594Z,2.60
2023-03-06T14:56:55.036Z,2.60
2023-03-06T14:59:26.918Z,2.60
2023-03-06T15:02:00.922Z,2.60
2023-03-06T15:04:35.200Z,2.70
2023-03-06T15:07:09.297Z,2.70
2023-03-06T15:09:39.028Z,2.70
2023-03-06T15:12:29.772Z,2.70
2023-03-06T15:15:02.806Z,2.70
2023-03-06T15:17:33.391Z,2.70
2023-03-06T15:20:08.061Z,2.70
2023-03-06T15:22:38.701Z,2.70
2023-03-06T15:25:22.026Z,2.70
2023-03-06T15:27:54.903Z,2.70
2023-03-06T15:30:28.083Z,2.70
2023-03-06T15:33:23.364Z,2.70
2023-03-06T15:35:57.317Z,2.70
2023-03-06T15:38:31.702Z,2.70
2023-03-06T15:41:01.427Z,2.80
2023-03-06T15:43:32.991Z,2.80
2023-03-06T15:46:03.208Z,2.80
2023-03-06T15:48:31.470Z,2.80
2023-03-06T15:50:59.901Z,2.70
2023-03-06T15:53:28.548Z,2.70
2023-03-06T15:55:57.628Z,2.70
2023-03-06T15:58:28.278Z,2.70
2023-03-06T16:00:56.659Z,2.70
2023-03-06T16:03:26.306Z,2.70
2023-03-06T16:05:54.601Z,2.70
2023-03-06T16:08:23.039Z,2.70
2023-03-06T16:10:52.526Z,2.70
2023-03-06T16:13:27.116Z,2.70
2023-03-06T16:15:55.701Z,2.70
2023-03-06T16:18:25.448Z,2.60
2023-03-06T16:20:53.786Z,2.70
2023-03-06T16:23:25.109Z,2.60
2023-03-06T16:25:53.473Z,2.60
2023-03-06T16:28:21.791Z,2.60
2023-03-06T16:30:50.166Z,2.50
2023-03-06T16:33:18.489Z,2.50
2023-03-06T16:35:49.999Z,2.50
2023-03-06T16:38:18.684Z,2.50
2023-03-06T16:40:47.058Z,2.50
2023-03-06T16:43:16.250Z,2.50
2023-03-06T16:45:45.178Z,2.40
2023-03-06T16:48:18.058Z,2.50
2023-03-06T16:50:47.781Z,2.50
2023-03-06T16:53:16.528Z,2.40
2023-03-06T16:55:44.855Z,2.50
2023-03-06T16:58:16.249Z,2.50
2023-03-06T17:00:44.820Z,2.40
2023-03-06T17:03:13.070Z,2.40
2023-03-06T17:05:43.984Z,2.40
2023-03-06T17:08:13.824Z,2.40
2023-03-06T17:10:43.274Z,2.30
2023-03-06T17:13:12.484Z,2.30
2023-03-06T17:15:56.309Z,2.40
2023-03-06T17:18:26.283Z,2.40
2023-03-06T17:20:54.930Z,2.40
2023-03-06T17:23:27.190Z,2.40
2023-03-06T17:26:07.068Z,2.40
2023-03-06T17:28:35.473Z,2.40
2023-03-06T17:31:05.343Z,2.50
2023-03-06T17:33:33.665Z,2.50
2023-03-06T17:36:04.349Z,2.40
2023-03-06T17:38:34.189Z,2.50
2023-03-06T17:41:04.720Z,2.40
2023-03-06T17:43:33.180Z,2.40
2023-03-06T17:46:05.311Z,2.40
2023-03-06T17:48:33.813Z,2.50
2023-03-06T17:51:05.950Z,2.40
2023-03-06T17:53:35.720Z,2.40
2023-03-06T17:56:04.936Z,2.50
2023-03-06T17:58:33.467Z,2.40
2023-03-06T18:01:02.217Z,2.50
2023-03-06T18:03:30.544Z,2.50
2023-03-06T18:06:02.178Z,2.50
2023-03-06T18:08:30.724Z,2.50
2023-03-06T18:11:03.607Z,2.50
2023-03-06T18:13:32.232Z,2.50
2023-03-06T18:16:00.670Z,2.50
2023-03-06T18:18:29.611Z,2.50
2023-03-06T18:20:58.264Z,2.50
2023-03-06T18:23:26.876Z,2.50
2023-03-06T18:26:06.988Z,2.50
2023-03-06T18:28:38.033Z,2.50
2023-03-06T18:31:08.905Z,2.40
2023-03-06T18:33:37.216Z,2.50
2023-03-06T18:36:05.810Z,2.50
2023-03-06T18:38:34.168Z,2.50
2023-03-06T18:41:02.634Z,2.40
2023-03-06T18:43:30.989Z,2.40
2023-03-06T18:46:00.756Z,2.40
2023-03-06T18:48:29.124Z,2.40
2023-03-06T18:50:57.470Z,2.40
2023-03-06T18:53:25.917Z,2.40
2023-03-06T18:55:55.550Z,2.40
2023-03-06T18:58:24.531Z,2.40
2023-03-06T19:00:52.913Z,2.40
2023-03-06T19:03:22.807Z,2.40
2023-03-06T19:05:51.278Z,2.40
2023-03-06T19:08:19.836Z,2.30
2023-03-06T19:10:49.702Z,2.40
2023-03-06T19:13:18.070Z,2.30
2023-03-06T19:15:48.691Z,2.30
2023-03-06T19:18:18.886Z,2.30
2023-03-06T19:20:48.584Z,2.30
2023-03-06T19:23:16.972Z,2.30
2023-03-06T19:25:45.296Z,2.30
2023-03-06T19:28:13.705Z,2.30
2023-03-06T19:30:42.242Z,2.30
2023-03-06T19:33:10.593Z,2.30
2023-03-06T19:35:38.972Z,2.30
2023-03-06T19:38:10.061Z,2.30
2023-03-06T19:40:38.803Z,2.30
2023-03-06T19:43:09.325Z,2.30
2023-03-06T19:45:43.123Z,2.30
2023-03-06T19:48:12.504Z,2.30
2023-03-06T19:50:40.877Z,2.20
2023-03-06T19:53:11.129Z,2.30
2023-03-06T19:55:40.032Z,2.30
2023-03-06T19:58:11.201Z,2.30
2023-03-06T20:00:39.676Z,2.20
2023-03-06T20:03:07.952Z,2.20
2023-03-06T20:05:36.286Z,2.30
2023-03-06T20:08:04.786Z,2.30
2023-03-06T20:10:37.697Z,2.30
2023-03-06T20:13:05.997Z,2.30
2023-03-06T20:15:35.203Z,2.20
2023-03-06T20:18:03.644Z,2.20
2023-03-06T20:20:34.343Z,2.30
2023-03-06T20:23:04.580Z,2.20
2023-03-06T20:25:35.512Z,2.30
2023-03-06T20:28:06.521Z,2.20
2023-03-06T20:30:38.333Z,2.20
2023-03-06T20:33:06.944Z,2.30
2023-03-06T20:35:35.265Z,2.30
2023-03-06T20:38:03.585Z,2.30
2023-03-06T20:40:32.100Z,2.30
2023-03-06T20:43:01.837Z,2.30
2023-03-06T20:45:30.238Z,2.30
2023-03-06T20:47:58.513Z,2.20
2023-03-06T20:50:26.884Z,2.20
2023-03-06T20:52:55.529Z,2.20
2023-03-06T20:55:26.790Z,2.20
2023-03-06T20:57:55.134Z,2.20
2023-03-06T21:00:24.824Z,2.20
2023-03-06T21:02:53.574Z,2.20
2023-03-06T21:05:21.972Z,2.10
2023-03-06T21:07:50.240Z,2.10
2023-03-06T21:10:18.914Z,2.00
2023-03-06T21:12:47.389Z,2.10
2023-03-06T21:15:15.812Z,2.00
2023-03-06T21:17:45.681Z,2.00
2023-03-06T21:20:14.182Z,2.00
2023-03-06T21:22:42.596Z,2.00
2023-03-06T21:25:11.030Z,2.00
2023-03-06T21:27:39.641Z,2.00
2023-03-06T21:30:09.573Z,2.00
2023-03-06T21:32:37.989Z,2.00
2023-03-06T21:35:08.470Z,2.00
2023-03-06T21:37:36.907Z,2.00
2023-03-06T21:40:06.760Z,1.90
2023-03-06T21:42:36.222Z,1.90
2023-03-06T21:45:05.127Z,1.90
2023-03-06T21:47:38.457Z,1.90
2023-03-06T21:50:10.677Z,2.00
2023-03-06T21:52:39.039Z,1.90
2023-03-06T21:55:08.647Z,2.00
2023-03-06T21:57:37.044Z,2.00
2023-03-06T22:00:12.693Z,2.00
2023-03-06T22:02:41.039Z,2.10
2023-03-06T22:05:11.556Z,2.00
2023-03-06T22:07:42.419Z,2.00
2023-03-06T22:10:14.365Z,2.00
2023-03-06T22:12:45.812Z,2.00
2023-03-06T22:15:14.112Z,2.00
2023-03-06T22:17:45.442Z,2.00
2023-03-06T22:20:15.577Z,2.00
2023-03-06T22:22:44.420Z,2.00
2023-03-06T22:25:15.087Z,2.00
2023-03-06T22:27:43.451Z,2.00
2023-03-06T22:30:13.282Z,2.00
2023-03-06T22:32:41.623Z,2.00
2023-03-06T22:35:10.635Z,2.00
2023-03-06T22:37:40.426Z,2.00
2023-03-06T22:40:09.854Z,2.00
2023-03-06T22:42:38.175Z,2.00
2023-03-06T22:45:07.395Z,2.00
2023-03-06T22:47:39.899Z,2.00
2023-03-06T22:50:12.713Z,2.00
2023-03-06T22:52:42.380Z,2.00
2023-03-06T22:55:11.535Z,2.00
2023-03-06T22:57:39.805Z,1.80
2023-03-06T23:00:11.115Z,1.90
2023-03-06T23:02:39.532Z,1.90
2023-03-06T23:05:08.116Z,1.90
2023-03-06T23:07:36.429Z,1.90
2023-03-06T23:10:06.949Z,1.90
2023-03-06T23:12:53.533Z,1.90
2023-03-06T23:15:40.088Z,1.90
2023-03-06T23:18:29.438Z,1.80
2023-03-06T23:21:18.732Z,1.70
2023-03-06T23:24:06.951Z,1.80
2023-03-06T23:26:37.150Z,1.70
2023-03-06T23:29:05.583Z,1.80
2023-03-06T23:31:36.391Z,1.70
2023-03-06T23:34:06.115Z,1.60
2023-03-06T23:36:37.589Z,1.60
2023-03-06T23:39:05.902Z,1.60
2023-03-06T23:41:34.278Z,1.60
2023-03-06T23:44:06.639Z,1.60
2023-03-06T23:46:35.064Z,1.60
2023-03-06T23:49:03.420Z,1.60
2023-03-06T23:51:32.127Z,1.60
2023-03-06T23:54:03.516Z,1.60
2023-03-06T23:56:31.904Z,1.60
2023-03-06T23:59:00.209Z,1.50
